Time;durP1;ratioP1;P1;durP2;ratioP2;P2;SDS_P1;SDS_P2;PMS_P1;PMS_P2;Temp;Humidity;BMP_temperature;BMP_pressure;BME280_temperature;BME280_humidity;BME280_pressure;Samples;Min_cycle;Max_cycle;Signal;HPM_P1;HPM_P2
2021/09/06 00:00:14;;;;;;;1.48;0.10;;;;;;;;;;5036294;28;20021;-69
2021/09/06 00:02:43;;;;;;;1.77;0.10;;;;;;;;;;5035823;28;20021;-71
2021/09/06 00:05:11;;;;;;;0.80;0.10;;;;;;;;;;5035775;28;20041;-69
2021/09/06 00:07:39;;;;;;;0.10;0.10;;;;;;;;;;5036626;28;20029;-70
2021/09/06 00:10:21;;;;;;;0.30;0.10;;;;;;;;;;5049867;28;20025;-69
2021/09/06 00:12:48;;;;;;;0.95;0.10;;;;;;;;;;5035825;28;20105;-69
2021/09/06 00:15:16;;;;;;;0.43;0.30;;;;;;;;;;5037647;28;20036;-69
2021/09/06 00:17:43;;;;;;;0.13;0.10;;;;;;;;;;5033960;28;20067;-69
2021/09/06 00:20:10;;;;;;;1.42;0.25;;;;;;;;;;5034924;28;20033;-69
2021/09/06 00:22:37;;;;;;;0.08;0.08;;;;;;;;;;5036854;28;20018;-71
2021/09/06 00:25:04;;;;;;;0.77;0.20;;;;;;;;;;5041046;28;20086;-70
2021/09/06 00:27:32;;;;;;;1.80;0.10;;;;;;;;;;5035091;28;20474;-71
2021/09/06 00:29:59;;;;;;;1.48;0.10;;;;;;;;;;5044884;28;20021;-70
2021/09/06 00:32:26;;;;;;;1.65;0.32;;;;;;;;;;5039883;28;20103;-70
2021/09/06 00:34:53;;;;;;;1.65;0.20;;;;;;;;;;5035185;28;20028;-70
2021/09/06 00:37:20;;;;;;;0.35;0.10;;;;;;;;;;5033571;28;21031;-70
2021/09/06 00:39:47;;;;;;;0.10;0.03;;;;;;;;;;5034385;28;20039;-69
2021/09/06 00:42:15;;;;;;;1.10;0.15;;;;;;;;;;5042218;28;20055;-71
2021/09/06 00:44:42;;;;;;;0.35;0.10;;;;;;;;;;5040724;28;20024;-70
2021/09/06 00:47:09;;;;;;;0.20;0.00;;;;;;;;;;5034205;28;20028;-70
2021/09/06 00:49:37;;;;;;;0.82;0.10;;;;;;;;;;5034668;28;20032;-71
2021/09/06 00:52:04;;;;;;;0.35;0.08;;;;;;;;;;5034831;28;20021;-72
2021/09/06 00:54:31;;;;;;;0.28;0.10;;;;;;;;;;5041778;28;20028;-69
2021/09/06 00:56:58;;;;;;;0.38;0.10;;;;;;;;;;5054997;28;20028;-69
2021/09/06 00:59:25;;;;;;;0.60;0.20;;;;;;;;;;5047235;28;20021;-70
2021/09/06 01:01:53;;;;;;;1.33;0.40;;;;;;;;;;5034501;28;20307;-70
2021/09/06 01:04:20;;;;;;;1.65;0.20;;;;;;;;;;5038988;28;20029;-71
2021/09/06 01:06:47;;;;;;;0.85;0.22;;;;;;;;;;5034684;28;20022;-67
2021/09/06 01:09:14;;;;;;;0.85;0.03;;;;;;;;;;5037817;28;20056;-70
2021/09/06 01:11:41;;;;;;;1.55;0.32;;;;;;;;;;5052260;28;20025;-69
2021/09/06 01:14:11;;;;;;;0.98;0.08;;;;;;;;;;5048007;28;20421;-69
2021/09/06 01:16:38;;;;;;;1.98;0.13;;;;;;;;;;5036601;28;20059;-70
2021/09/06 01:19:05;;;;;;;0.43;0.10;;;;;;;;;;5050235;28;20078;-70
2021/09/06 01:21:32;;;;;;;3.03;0.10;;;;;;;;;;5042600;28;20026;-70
2021/09/06 01:24:00;;;;;;;2.85;0.10;;;;;;;;;;5034437;28;20025;-71
2021/09/06 01:26:27;;;;;;;2.58;0.30;;;;;;;;;;5043287;28;20036;-69
2021/09/06 01:28:54;;;;;;;1.00;0.10;;;;;;;;;;5049174;28;20113;-70
2021/09/06 01:31:23;;;;;;;1.10;0.10;;;;;;;;;;5033291;28;20068;-69
2021/09/06 01:33:50;;;;;;;2.78;0.35;;;;;;;;;;5033128;28;20076;-71
2021/09/06 01:36:17;;;;;;;0.68;0.35;;;;;;;;;;5033143;28;20056;-70
2021/09/06 01:38:44;;;;;;;0.32;0.10;;;;;;;;;;5034168;28;20041;-68
2021/09/06 01:41:11;;;;;;;0.63;0.10;;;;;;;;;;5048222;28;20485;-70
2021/09/06 01:43:39;;;;;;;0.75;0.10;;;;;;;;;;5044081;28;20025;-69
2021/09/06 01:46:06;;;;;;;0.80;0.10;;;;;;;;;;5052257;28;20096;-70
2021/09/06 01:48:33;;;;;;;0.60;0.30;;;;;;;;;;5051908;28;20040;-69
2021/09/06 01:51:00;;;;;;;0.40;0.00;;;;;;;;;;5033317;28;20076;-69
2021/09/06 01:53:27;;;;;;;0.10;0.00;;;;;;;;;;5033351;28;20025;-69
2021/09/06 01:55:54;;;;;;;1.10;0.10;;;;;;;;;;5052680;28;20021;-68
2021/09/06 01:58:22;;;;;;;2.63;0.30;;;;;;;;;;5044982;28;20048;-70
2021/09/06 02:00:49;;;;;;;2.33;0.63;;;;;;;;;;5051631;28;20025;-69
2021/09/06 02:03:16;;;;;;;0.88;0.15;;;;;;;;;;5053190;28;20079;-69
2021/09/06 02:05:43;;;;;;;5.10;0.73;;;;;;;;;;5033908;28;20436;-68
2021/09/06 02:08:10;;;;;;;4.50;0.47;;;;;;;;;;5032971;28;20029;-69
2021/09/06 02:10:37;;;;;;;3.60;0.45;;;;;;;;;;5033519;28;20136;-70
2021/09/06 02:13:04;;;;;;;4.47;0.30;;;;;;;;;;5032063;28;20052;-69
2021/09/06 02:15:31;;;;;;;4.82;0.80;;;;;;;;;;5039513;28;20428;-68
2021/09/06 02:17:59;;;;;;;4.00;0.40;;;;;;;;;;5033317;28;20087;-69
2021/09/06 02:20:26;;;;;;;1.80;0.80;;;;;;;;;;5033482;28;20022;-68
2021/09/06 02:22:53;;;;;;;2.92;0.47;;;;;;;;;;5033121;28;20561;-69
2021/09/06 02:25:20;;;;;;;5.53;0.40;;;;;;;;;;5033055;28;20025;-69
2021/09/06 02:27:47;;;;;;;4.45;0.40;;;;;;;;;;5034397;28;20513;-68
2021/09/06 02:30:14;;;;;;;4.80;0.55;;;;;;;;;;5039544;28;20017;-68
2021/09/06 02:32:41;;;;;;;5.97;0.88;;;;;;;;;;5039224;28;20017;-67
2021/09/06 02:35:09;;;;;;;4.05;0.73;;;;;;;;;;5039783;28;20037;-68
2021/09/06 02:37:36;;;;;;;5.60;0.65;;;;;;;;;;5035125;28;20144;-67
2021/09/06 02:40:03;;;;;;;3.90;0.50;;;;;;;;;;5050917;28;20439;-68
2021/09/06 02:42:30;;;;;;;5.75;0.98;;;;;;;;;;5052498;28;20025;-68
2021/09/06 02:44:58;;;;;;;5.18;0.70;;;;;;;;;;5041822;28;20021;-69
2021/09/06 02:47:27;;;;;;;4.68;0.80;;;;;;;;;;5035587;28;20044;-68
2021/09/06 02:49:55;;;;;;;3.88;0.63;;;;;;;;;;5038570;28;20495;-68
2021/09/06 02:52:23;;;;;;;8.57;0.80;;;;;;;;;;5040919;28;20028;-68
2021/09/06 02:54:50;;;;;;;4.07;0.68;;;;;;;;;;5036251;28;20033;-68
2021/09/06 02:57:17;;;;;;;6.78;1.05;;;;;;;;;;5042077;28;20084;-68
2021/09/06 02:59:44;;;;;;;7.20;0.85;;;;;;;;;;5037580;28;20021;-68
2021/09/06 03:02:11;;;;;;;4.25;0.90;;;;;;;;;;5039606;28;20080;-68
2021/09/06 03:04:38;;;;;;;2.65;0.47;;;;;;;;;;5038643;28;20021;-68
2021/09/06 03:07:05;;;;;;;5.43;1.02;;;;;;;;;;5043538;28;20048;-68
2021/09/06 03:09:32;;;;;;;6.65;1.02;;;;;;;;;;5040841;28;20051;-68
2021/09/06 03:12:00;;;;;;;3.33;0.65;;;;;;;;;;5052552;28;20029;-67
2021/09/06 03:14:27;;;;;;;4.47;0.80;;;;;;;;;;5051078;28;20033;-68
2021/09/06 03:16:54;;;;;;;5.68;0.80;;;;;;;;;;5040060;28;20105;-69
2021/09/06 03:19:21;;;;;;;5.55;0.90;;;;;;;;;;5040937;28;20024;-69
2021/09/06 03:21:48;;;;;;;6.25;1.08;;;;;;;;;;5051668;28;20025;-68
2021/09/06 03:24:15;;;;;;;7.03;1.35;;;;;;;;;;5042209;28;20536;-68
2021/09/06 03:26:42;;;;;;;6.03;1.23;;;;;;;;;;5050798;28;20037;-68
2021/09/06 03:29:10;;;;;;;3.33;0.70;;;;;;;;;;5048753;28;20029;-68
2021/09/06 03:31:37;;;;;;;7.53;1.48;;;;;;;;;;5049150;28;20055;-68
2021/09/06 03:34:04;;;;;;;7.50;1.30;;;;;;;;;;5051502;28;20026;-69
2021/09/06 03:36:31;;;;;;;5.05;0.95;;;;;;;;;;5038155;28;20028;-68
2021/09/06 03:38:58;;;;;;;5.50;0.70;;;;;;;;;;5039160;28;20061;-68
2021/09/06 03:41:25;;;;;;;7.40;1.27;;;;;;;;;;5041403;28;20091;-69
2021/09/06 03:43:53;;;;;;;7.35;1.38;;;;;;;;;;5053809;28;20040;-69
2021/09/06 03:46:20;;;;;;;6.47;0.85;;;;;;;;;;5037889;28;20378;-68
2021/09/06 03:48:47;;;;;;;6.00;0.80;;;;;;;;;;5039047;28;20030;-69
2021/09/06 03:51:14;;;;;;;8.65;0.88;;;;;;;;;;5039796;28;20468;-67
2021/09/06 03:53:41;;;;;;;9.73;1.35;;;;;;;;;;5039756;28;20045;-69
2021/09/06 03:56:08;;;;;;;11.00;1.33;;;;;;;;;;5037468;28;20505;-68
2021/09/06 03:58:35;;;;;;;5.85;1.05;;;;;;;;;;5050435;28;20075;-69
2021/09/06 04:01:02;;;;;;;5.55;0.80;;;;;;;;;;5046176;28;20124;-68
2021/09/06 04:03:30;;;;;;;9.90;1.02;;;;;;;;;;5042174;28;20028;-68
2021/09/06 04:05:57;;;;;;;4.97;0.93;;;;;;;;;;5046014;28;20032;-69
2021/09/06 04:08:25;;;;;;;5.78;1.33;;;;;;;;;;5041405;28;20115;-68
2021/09/06 04:10:53;;;;;;;7.18;0.95;;;;;;;;;;5053512;28;20047;-69
2021/09/06 04:13:20;;;;;;;9.80;1.30;;;;;;;;;;5054427;28;20111;-69
2021/09/06 04:15:47;;;;;;;7.82;1.23;;;;;;;;;;5035905;28;20022;-68
2021/09/06 04:18:18;;;;;;;8.90;1.60;;;;;;;;;;5036026;28;20017;-68
2021/09/06 04:20:45;;;;;;;6.25;0.98;;;;;;;;;;5036641;28;20057;-68
2021/09/06 04:23:12;;;;;;;8.63;1.27;;;;;;;;;;5053804;28;20520;-68
2021/09/06 04:25:39;;;;;;;6.18;1.05;;;;;;;;;;5050156;28;20029;-69
2021/09/06 04:28:06;;;;;;;6.07;1.40;;;;;;;;;;5049837;28;20067;-67
2021/09/06 04:30:33;;;;;;;9.63;1.13;;;;;;;;;;5044282;28;20031;-68
2021/09/06 04:33:00;;;;;;;6.03;1.30;;;;;;;;;;5051430;28;20029;-69
2021/09/06 04:35:27;;;;;;;5.85;1.85;;;;;;;;;;5040621;28;20746;-67
2021/09/06 04:37:55;;;;;;;7.20;1.25;;;;;;;;;;5041295;28;20052;-68
2021/09/06 04:40:22;;;;;;;4.55;0.93;;;;;;;;;;5038691;28;20410;-69
2021/09/06 04:42:49;;;;;;;7.65;1.65;;;;;;;;;;5054363;28;20032;-69
2021/09/06 04:45:17;;;;;;;8.98;1.42;;;;;;;;;;5049846;28;20025;-68
2021/09/06 04:47:44;;;;;;;11.75;1.77;;;;;;;;;;5048705;28;20029;-66
2021/09/06 04:50:11;;;;;;;8.27;0.93;;;;;;;;;;5040255;28;20026;-66
2021/09/06 04:52:38;;;;;;;9.18;1.35;;;;;;;;;;5049875;28;20028;-67
2021/09/06 04:55:06;;;;;;;7.75;1.95;;;;;;;;;;5035779;28;20394;-68
2021/09/06 04:57:33;;;;;;;5.63;0.90;;;;;;;;;;5035893;28;20048;-66
2021/09/06 05:00:00;;;;;;;7.65;1.60;;;;;;;;;;5038017;28;20037;-67
2021/09/06 05:02:27;;;;;;;8.95;1.65;;;;;;;;;;5035007;28;20029;-67
2021/09/06 05:04:54;;;;;;;8.95;1.10;;;;;;;;;;5047412;28;20508;-69
2021/09/06 05:07:21;;;;;;;11.18;1.05;;;;;;;;;;5055735;28;20043;-69
2021/09/06 05:09:49;;;;;;;12.88;1.80;;;;;;;;;;5047128;28;20052;-68
2021/09/06 05:12:16;;;;;;;10.55;1.88;;;;;;;;;;5045418;28;20481;-68
2021/09/06 05:14:43;;;;;;;10.70;1.90;;;;;;;;;;5049915;28;20026;-69
2021/09/06 05:17:10;;;;;;;12.80;1.65;;;;;;;;;;5035904;28;20429;-69
2021/09/06 05:19:37;;;;;;;12.52;1.50;;;;;;;;;;5037340;28;20079;-68
2021/09/06 05:22:04;;;;;;;7.38;1.67;;;;;;;;;;5048787;28;20023;-69
2021/09/06 05:24:31;;;;;;;5.22;1.00;;;;;;;;;;5044524;28;20083;-68
2021/09/06 05:26:58;;;;;;;9.80;1.60;;;;;;;;;;5039957;28;20109;-69
2021/09/06 05:29:26;;;;;;;12.80;2.40;;;;;;;;;;5034314;28;20064;-67
2021/09/06 05:31:53;;;;;;;14.13;5.57;;;;;;;;;;5032860;28;20040;-68
2021/09/06 05:34:20;;;;;;;13.00;2.22;;;;;;;;;;5042448;28;20050;-68
2021/09/06 05:36:47;;;;;;;5.65;1.23;;;;;;;;;;5036027;28;20032;-69
2021/09/06 05:39:14;;;;;;;12.52;1.65;;;;;;;;;;5043122;28;20049;-68
2021/09/06 05:41:41;;;;;;;11.95;2.03;;;;;;;;;;5035511;28;20387;-68
2021/09/06 05:44:08;;;;;;;10.98;1.90;;;;;;;;;;5041336;28;20030;-69
2021/09/06 05:46:36;;;;;;;8.60;1.63;;;;;;;;;;5037439;28;20048;-69
2021/09/06 05:49:03;;;;;;;12.15;2.00;;;;;;;;;;5032860;28;20037;-68
2021/09/06 05:51:30;;;;;;;9.00;1.95;;;;;;;;;;5031812;28;20035;-69
2021/09/06 05:53:57;;;;;;;7.15;1.67;;;;;;;;;;5034680;28;20497;-69
2021/09/06 05:56:25;;;;;;;9.32;1.30;;;;;;;;;;5035227;28;20028;-69
2021/09/06 05:58:52;;;;;;;6.90;1.15;;;;;;;;;;5040829;28;20037;-69
2021/09/06 06:01:19;;;;;;;10.50;1.40;;;;;;;;;;5046507;28;20025;-68
2021/09/06 06:03:46;;;;;;;6.03;1.30;;;;;;;;;;5037960;28;20032;-69
2021/09/06 06:06:13;;;;;;;8.02;1.13;;;;;;;;;;5039986;28;20027;-68
2021/09/06 06:08:40;;;;;;;9.10;1.42;;;;;;;;;;5039808;28;20041;-69
2021/09/06 06:11:07;;;;;;;8.05;1.73;;;;;;;;;;5036593;28;20029;-69
2021/09/06 06:13:35;;;;;;;6.43;1.77;;;;;;;;;;5037083;28;20030;-68
2021/09/06 06:16:02;;;;;;;6.95;1.48;;;;;;;;;;5037797;28;20021;-68
2021/09/06 06:18:29;;;;;;;8.85;1.45;;;;;;;;;;5045381;28;20089;-69
2021/09/06 06:20:56;;;;;;;5.78;1.25;;;;;;;;;;5044572;28;20464;-68
2021/09/06 06:23:23;;;;;;;8.20;1.42;;;;;;;;;;5033931;28;20026;-69
2021/09/06 06:25:50;;;;;;;9.50;1.20;;;;;;;;;;5032928;28;20443;-69
2021/09/06 06:28:17;;;;;;;9.57;1.20;;;;;;;;;;5036110;28;20041;-69
2021/09/06 06:30:45;;;;;;;13.80;2.42;;;;;;;;;;5040788;28;20017;-70
2021/09/06 06:33:12;;;;;;;9.18;1.35;;;;;;;;;;5035330;28;20382;-69
2021/09/06 06:35:39;;;;;;;8.98;1.48;;;;;;;;;;5035416;28;20021;-69
2021/09/06 06:38:06;;;;;;;14.80;2.45;;;;;;;;;;5033602;28;20075;-71
2021/09/06 06:40:34;;;;;;;11.20;1.83;;;;;;;;;;5031370;28;20394;-71
2021/09/06 06:43:02;;;;;;;13.52;1.95;;;;;;;;;;5037604;28;20018;-70
2021/09/06 06:45:29;;;;;;;11.43;1.73;;;;;;;;;;5033664;28;20484;-70
2021/09/06 06:47:56;;;;;;;11.07;2.25;;;;;;;;;;5031326;28;20474;-71
2021/09/06 06:50:24;;;;;;;6.70;1.77;;;;;;;;;;5041637;28;20096;-70
2021/09/06 06:52:54;;;;;;;10.52;1.77;;;;;;;;;;5039838;28;20359;-70
2021/09/06 06:55:22;;;;;;;11.38;2.20;;;;;;;;;;5032107;28;20395;-70
2021/09/06 06:57:49;;;;;;;15.07;2.03;;;;;;;;;;5035725;28;20032;-70
2021/09/06 07:00:16;;;;;;;16.05;2.67;;;;;;;;;;5031687;28;20036;-67
2021/09/06 07:02:43;;;;;;;8.02;2.92;;;;;;;;;;5045664;28;20110;-68
2021/09/06 07:05:11;;;;;;;11.27;4.55;;;;;;;;;;5036710;28;20029;-68
2021/09/06 07:07:38;;;;;;;10.32;2.95;;;;;;;;;;5031193;28;20029;-68
2021/09/06 07:10:06;;;;;;;10.30;1.70;;;;;;;;;;5035729;28;20080;-67
2021/09/06 07:12:34;;;;;;;13.45;2.72;;;;;;;;;;5039817;28;20037;-70
2021/09/06 07:15:01;;;;;;;14.75;2.60;;;;;;;;;;5033679;28;20021;-70
2021/09/06 07:17:28;;;;;;;10.05;2.33;;;;;;;;;;5032065;28;20033;-70
2021/09/06 07:19:55;;;;;;;12.10;2.10;;;;;;;;;;5034243;28;20475;-70
2021/09/06 07:22:22;;;;;;;15.38;2.55;;;;;;;;;;5033630;28;20026;-70
2021/09/06 07:24:49;;;;;;;10.90;2.55;;;;;;;;;;5041674;28;20034;-70
2021/09/06 07:27:16;;;;;;;14.20;2.78;;;;;;;;;;5050976;28;20025;-70
2021/09/06 07:29:44;;;;;;;14.35;2.67;;;;;;;;;;5040578;28;20025;-69
2021/09/06 07:32:11;;;;;;;44.80;23.10;;;;;;;;;;5040685;28;20025;-70
2021/09/06 07:34:38;;;;;;;22.63;9.80;;;;;;;;;;5044239;28;20025;-70
2021/09/06 07:37:08;;;;;;;16.27;3.90;;;;;;;;;;5035267;28;20063;-70
2021/09/06 07:39:36;;;;;;;18.45;5.10;;;;;;;;;;5048612;28;20025;-70
2021/09/06 07:42:04;;;;;;;20.67;8.95;;;;;;;;;;5042302;28;20022;-70
2021/09/06 07:44:32;;;;;;;21.05;7.00;;;;;;;;;;5046866;28;20036;-71
2021/09/06 07:46:59;;;;;;;28.50;13.20;;;;;;;;;;5046931;28;20025;-70
2021/09/06 07:49:26;;;;;;;19.90;5.72;;;;;;;;;;5049167;28;20029;-70
2021/09/06 07:51:53;;;;;;;17.02;4.45;;;;;;;;;;5043697;28;20029;-71
2021/09/06 07:54:24;;;;;;;23.75;7.38;;;;;;;;;;5047685;28;20444;-70
2021/09/06 07:56:52;;;;;;;25.13;4.50;;;;;;;;;;5042607;28;20158;-70
2021/09/06 07:59:21;;;;;;;17.52;4.65;;;;;;;;;;5036214;28;20026;-71
2021/09/06 08:01:48;;;;;;;15.38;2.95;;;;;;;;;;5039379;28;20021;-72
2021/09/06 08:04:15;;;;;;;12.32;3.45;;;;;;;;;;5045121;28;20390;-71
2021/09/06 08:06:44;;;;;;;16.75;3.35;;;;;;;;;;5035891;28;20026;-73
2021/09/06 08:09:11;;;;;;;19.55;4.35;;;;;;;;;;5037769;28;20044;-73
2021/09/06 08:11:38;;;;;;;26.48;3.95;;;;;;;;;;5048341;28;20029;-72
2021/09/06 08:14:06;;;;;;;22.88;3.95;;;;;;;;;;5035686;28;20038;-72
2021/09/06 08:16:33;;;;;;;18.45;3.60;;;;;;;;;;5044934;28;20055;-71
2021/09/06 08:19:01;;;;;;;24.63;5.05;;;;;;;;;;5042828;28;20428;-72
2021/09/06 08:21:29;;;;;;;18.92;4.20;;;;;;;;;;5034556;28;20025;-72
2021/09/06 08:23:57;;;;;;;14.82;3.85;;;;;;;;;;5035418;28;20474;-72
2021/09/06 08:26:25;;;;;;;18.33;3.17;;;;;;;;;;5034696;28;20021;-71
2021/09/06 08:28:52;;;;;;;21.30;3.35;;;;;;;;;;5042052;28;20116;-72
2021/09/06 08:31:20;;;;;;;17.80;3.63;;;;;;;;;;5034639;28;20100;-71
2021/09/06 08:33:47;;;;;;;21.13;5.97;;;;;;;;;;5036782;28;20079;-71
2021/09/06 08:36:14;;;;;;;27.73;5.45;;;;;;;;;;5039980;28;20139;-72
2021/09/06 08:38:41;;;;;;;16.52;2.88;;;;;;;;;;5036811;28;20053;-72
2021/09/06 08:41:08;;;;;;;21.17;5.47;;;;;;;;;;5035024;28;20025;-70
2021/09/06 08:43:36;;;;;;;22.35;2.80;;;;;;;;;;5039795;28;20022;-69
2021/09/06 08:46:03;;;;;;;17.80;3.70;;;;;;;;;;5052693;28;20385;-69
2021/09/06 08:48:30;;;;;;;23.42;3.70;;;;;;;;;;5033777;28;20129;-70
2021/09/06 08:50:58;;;;;;;25.35;4.22;;;;;;;;;;5037057;28;20047;-70
2021/09/06 08:53:25;;;;;;;17.30;4.57;;;;;;;;;;5034343;28;20022;-70
2021/09/06 08:55:54;;;;;;;19.90;4.22;;;;;;;;;;5033371;28;20075;-70
2021/09/06 08:58:21;;;;;;;17.85;5.10;;;;;;;;;;5035106;28;20065;-69
2021/09/06 09:00:52;;;;;;;21.88;3.28;;;;;;;;;;5036873;28;20017;-69
2021/09/06 09:03:20;;;;;;;24.02;3.70;;;;;;;;;;5033744;28;20034;-69
2021/09/06 09:06:00;;;;;;;24.65;4.53;;;;;;;;;;5041892;28;20470;-70
2021/09/06 09:08:28;;;;;;;25.77;4.28;;;;;;;;;;5038632;28;20084;-70
2021/09/06 09:11:01;;;;;;;20.20;2.60;;;;;;;;;;5044374;28;20530;-69
2021/09/06 09:13:30;;;;;;;19.42;3.10;;;;;;;;;;5047853;28;20025;-70
2021/09/06 09:15:58;;;;;;;25.95;3.63;;;;;;;;;;5043532;28;20479;-71
2021/09/06 09:18:25;;;;;;;18.65;3.45;;;;;;;;;;5040405;28;20452;-70
2021/09/06 09:20:58;;;;;;;29.88;4.07;;;;;;;;;;5048192;28;20029;-70
2021/09/06 09:23:35;;;;;;;20.10;3.95;;;;;;;;;;5038477;28;20134;-71
2021/09/06 09:26:02;;;;;;;16.98;2.80;;;;;;;;;;5033934;28;20021;-70
2021/09/06 09:28:30;;;;;;;20.00;4.35;;;;;;;;;;5048824;28;20033;-70
2021/09/06 09:31:10;;;;;;;23.98;5.13;;;;;;;;;;5045383;28;20021;-71
2021/09/06 09:33:45;;;;;;;24.50;5.10;;;;;;;;;;5044377;28;20052;-68
2021/09/06 09:36:13;;;;;;;23.48;4.05;;;;;;;;;;5046628;28;20044;-70
2021/09/06 09:38:40;;;;;;;17.67;3.75;;;;;;;;;;5049627;28;20041;-69
2021/09/06 09:41:17;;;;;;;21.13;4.47;;;;;;;;;;5050455;28;20493;-69
2021/09/06 09:43:44;;;;;;;16.38;3.40;;;;;;;;;;5036932;28;20133;-69
2021/09/06 09:46:11;;;;;;;23.63;5.45;;;;;;;;;;5034559;28;20030;-68
2021/09/06 09:48:38;;;;;;;20.88;3.03;;;;;;;;;;5040765;28;20029;-69
2021/09/06 09:51:05;;;;;;;28.55;5.20;;;;;;;;;;5047900;28;20096;-68
2021/09/06 09:53:33;;;;;;;21.02;4.28;;;;;;;;;;5040919;28;20438;-69
2021/09/06 09:56:01;;;;;;;20.83;3.83;;;;;;;;;;5032811;28;20018;-69
2021/09/06 09:58:28;;;;;;;14.48;3.35;;;;;;;;;;5032732;28;20495;-69
2021/09/06 10:00:56;;;;;;;20.58;3.05;;;;;;;;;;5037163;28;20021;-69
2021/09/06 10:03:25;;;;;;;21.60;3.78;;;;;;;;;;5036285;28;20025;-69
2021/09/06 10:05:55;;;;;;;22.38;4.28;;;;;;;;;;5042958;28;20041;-69
2021/09/06 10:08:23;;;;;;;22.98;4.07;;;;;;;;;;5038863;28;20080;-69
2021/09/06 10:10:50;;;;;;;21.38;7.15;;;;;;;;;;5041598;28;20047;-69
2021/09/06 10:13:19;;;;;;;26.02;8.35;;;;;;;;;;5032862;28;20415;-69
2021/09/06 10:16:01;;;;;;;22.13;5.93;;;;;;;;;;5032207;28;20548;-69
2021/09/06 10:18:36;;;;;;;23.23;3.92;;;;;;;;;;5038106;28;20037;-69
2021/09/06 10:21:10;;;;;;;18.25;4.05;;;;;;;;;;5037617;28;20047;-69
2021/09/06 10:23:47;;;;;;;16.65;3.80;;;;;;;;;;5033480;28;20029;-68
2021/09/06 10:26:15;;;;;;;17.80;3.47;;;;;;;;;;5047351;28;20056;-68
2021/09/06 10:28:42;;;;;;;19.83;4.13;;;;;;;;;;5044911;28;20087;-68
2021/09/06 10:31:19;;;;;;;15.73;2.78;;;;;;;;;;5032097;28;20033;-69
2021/09/06 10:33:56;;;;;;;19.15;3.78;;;;;;;;;;5032050;28;20022;-69
2021/09/06 10:36:23;;;;;;;16.48;3.28;;;;;;;;;;5038697;28;20028;-68
2021/09/06 10:38:52;;;;;;;19.65;3.65;;;;;;;;;;5040178;28;20057;-69
2021/09/06 10:41:20;;;;;;;21.08;3.22;;;;;;;;;;5033197;28;20497;-69
2021/09/06 10:43:51;;;;;;;20.45;3.88;;;;;;;;;;5032253;28;20056;-69
2021/09/06 10:46:18;;;;;;;27.55;5.40;;;;;;;;;;5048890;28;20477;-69
2021/09/06 10:48:45;;;;;;;25.60;3.78;;;;;;;;;;5040378;28;20069;-69
2021/09/06 10:51:13;;;;;;;18.65;3.72;;;;;;;;;;5051112;28;20108;-68
2021/09/06 10:53:40;;;;;;;18.30;3.15;;;;;;;;;;5051146;28;20366;-69
2021/09/06 10:56:08;;;;;;;24.20;4.00;;;;;;;;;;5033754;28;20497;-68
2021/09/06 10:58:35;;;;;;;20.08;3.78;;;;;;;;;;5039001;28;20386;-68
2021/09/06 11:01:05;;;;;;;25.92;3.85;;;;;;;;;;5031731;28;20392;-68
2021/09/06 11:03:38;;;;;;;21.15;5.35;;;;;;;;;;5034771;28;20026;-69
2021/09/06 11:06:06;;;;;;;18.17;3.00;;;;;;;;;;5032994;28;20056;-69
2021/09/06 11:08:34;;;;;;;17.70;3.70;;;;;;;;;;5045701;28;20022;-68
2021/09/06 11:11:03;;;;;;;20.17;3.67;;;;;;;;;;5032097;28;20022;-68
2021/09/06 11:13:49;;;;;;;18.90;3.30;;;;;;;;;;5030526;28;20068;-69
2021/09/06 11:16:18;;;;;;;20.70;3.78;;;;;;;;;;5035888;28;20316;-70
2021/09/06 11:18:46;;;;;;;19.17;4.03;;;;;;;;;;5034879;28;20083;-69
2021/09/06 11:21:14;;;;;;;23.92;4.53;;;;;;;;;;5037581;28;20083;-69
2021/09/06 11:23:45;;;;;;;18.42;3.45;;;;;;;;;;5038874;28;20027;-70
2021/09/06 11:26:27;;;;;;;24.98;3.97;;;;;;;;;;5035948;28;20025;-69
2021/09/06 11:28:55;;;;;;;22.23;4.35;;;;;;;;;;5041766;28;20061;-69
2021/09/06 11:31:23;;;;;;;16.70;4.63;;;;;;;;;;5035064;28;20029;-69
2021/09/06 11:34:04;;;;;;;23.30;4.63;;;;;;;;;;5035772;28;20029;-69
2021/09/06 11:36:31;;;;;;;24.65;4.57;;;;;;;;;;5051591;28;20021;-69
2021/09/06 11:38:59;;;;;;;19.02;3.38;;;;;;;;;;5038840;28;20060;-69
2021/09/06 11:41:26;;;;;;;17.33;3.58;;;;;;;;;;5040552;28;20060;-69
2021/09/06 11:43:54;;;;;;;18.17;4.95;;;;;;;;;;5034943;28;20462;-67
2021/09/06 11:46:21;;;;;;;23.60;4.28;;;;;;;;;;5043264;28;20033;-70
2021/09/06 11:48:50;;;;;;;22.25;4.18;;;;;;;;;;5040034;28;20806;-70
2021/09/06 11:51:17;;;;;;;17.45;3.60;;;;;;;;;;5043939;28;20056;-70
2021/09/06 11:53:55;;;;;;;18.75;4.03;;;;;;;;;;5040181;28;20449;-69
2021/09/06 11:56:22;;;;;;;21.20;3.83;;;;;;;;;;5042510;28;20033;-70
2021/09/06 11:58:49;;;;;;;22.15;3.92;;;;;;;;;;5034684;28;20072;-69
2021/09/06 12:01:16;;;;;;;20.25;4.65;;;;;;;;;;5036463;28;20025;-69
2021/09/06 12:03:44;;;;;;;26.13;4.85;;;;;;;;;;5037184;28;20221;-69
2021/09/06 12:06:15;;;;;;;17.23;3.38;;;;;;;;;;5036202;28;20032;-69
2021/09/06 12:08:52;;;;;;;25.25;5.10;;;;;;;;;;5033748;28;20033;-69
2021/09/06 12:11:19;;;;;;;17.52;3.53;;;;;;;;;;5033468;28;20021;-70
2021/09/06 12:13:57;;;;;;;19.85;3.65;;;;;;;;;;5034250;28;20091;-69
2021/09/06 12:16:33;;;;;;;16.77;3.35;;;;;;;;;;5034444;28;20017;-69
2021/09/06 12:19:02;;;;;;;15.50;4.07;;;;;;;;;;5038468;28;20127;-70
2021/09/06 12:21:29;;;;;;;22.13;4.45;;;;;;;;;;5040896;28;20120;-68
2021/09/06 12:24:01;;;;;;;21.52;3.38;;;;;;;;;;5035087;28;20068;-68
2021/09/06 12:26:39;;;;;;;24.00;3.90;;;;;;;;;;5045309;28;20465;-69
2021/09/06 12:29:06;;;;;;;14.73;2.88;;;;;;;;;;5036805;28;20036;-68
2021/09/06 12:31:41;;;;;;;14.52;3.58;;;;;;;;;;5038221;28;20550;-69
2021/09/06 12:34:08;;;;;;;17.05;3.97;;;;;;;;;;5034673;28;20025;-70
2021/09/06 12:36:35;;;;;;;14.27;2.90;;;;;;;;;;5033252;28;20044;-69
2021/09/06 12:39:02;;;;;;;20.05;3.53;;;;;;;;;;5035159;28;20050;-69
2021/09/06 12:41:29;;;;;;;17.40;3.00;;;;;;;;;;5038197;28;20033;-69
2021/09/06 12:44:00;;;;;;;18.85;3.80;;;;;;;;;;5036424;28;20032;-69
2021/09/06 12:46:28;;;;;;;15.80;3.50;;;;;;;;;;5054057;28;20029;-69
2021/09/06 12:48:55;;;;;;;16.30;3.88;;;;;;;;;;5036259;28;20143;-69
2021/09/06 12:51:23;;;;;;;19.67;4.68;;;;;;;;;;5035467;28;20045;-70
2021/09/06 12:53:50;;;;;;;22.02;4.53;;;;;;;;;;5033590;28;20037;-69
2021/09/06 12:56:17;;;;;;;19.88;4.40;;;;;;;;;;5041321;28;20136;-69
2021/09/06 12:58:44;;;;;;;15.90;4.10;;;;;;;;;;5041815;28;20022;-70
2021/09/06 13:01:11;;;;;;;18.05;3.40;;;;;;;;;;5034145;28;20029;-69
2021/09/06 13:03:41;;;;;;;20.15;3.67;;;;;;;;;;5033990;28;20075;-69
2021/09/06 13:06:11;;;;;;;18.85;3.53;;;;;;;;;;5033588;28;20030;-70
2021/09/06 13:08:38;;;;;;;15.68;3.60;;;;;;;;;;5032899;28;20030;-70
2021/09/06 13:11:06;;;;;;;15.32;2.80;;;;;;;;;;5032530;28;20033;-69
2021/09/06 13:13:33;;;;;;;20.65;4.28;;;;;;;;;;5045033;28;20551;-68
2021/09/06 13:16:00;;;;;;;20.13;3.70;;;;;;;;;;5035784;28;20084;-69
2021/09/06 13:18:27;;;;;;;24.40;4.85;;;;;;;;;;5033661;28;20551;-69
2021/09/06 13:20:57;;;;;;;15.23;4.13;;;;;;;;;;5046757;28;20089;-69
2021/09/06 13:23:24;;;;;;;18.65;3.33;;;;;;;;;;5032446;28;20026;-69
2021/09/06 13:25:52;;;;;;;19.10;3.28;;;;;;;;;;5046146;28;20083;-69
2021/09/06 13:28:19;;;;;;;21.83;3.55;;;;;;;;;;5042438;28;20170;-69
2021/09/06 13:30:46;;;;;;;20.08;3.60;;;;;;;;;;5034270;28;20033;-69
2021/09/06 13:33:13;;;;;;;20.23;3.45;;;;;;;;;;5033683;28;20092;-69
2021/09/06 13:35:40;;;;;;;18.13;4.15;;;;;;;;;;5031961;28;20033;-69
2021/09/06 13:38:07;;;;;;;17.45;4.38;;;;;;;;;;5033263;28;20129;-69
2021/09/06 13:40:34;;;;;;;16.02;3.13;;;;;;;;;;5032018;28;20033;-69
2021/09/06 13:43:01;;;;;;;15.65;2.80;;;;;;;;;;5036287;28;20422;-69
2021/09/06 13:45:29;;;;;;;22.52;4.38;;;;;;;;;;5033700;28;20025;-70
2021/09/06 13:47:56;;;;;;;20.90;4.65;;;;;;;;;;5033128;28;20482;-69
2021/09/06 13:50:23;;;;;;;21.00;3.58;;;;;;;;;;5045408;28;20040;-69
2021/09/06 13:52:50;;;;;;;20.90;4.45;;;;;;;;;;5032939;28;20487;-69
2021/09/06 13:55:17;;;;;;;16.35;3.35;;;;;;;;;;5034119;28;20045;-68
2021/09/06 13:57:47;;;;;;;16.73;3.78;;;;;;;;;;5034783;28;20025;-69
2021/09/06 14:00:14;;;;;;;16.67;3.15;;;;;;;;;;5032797;28;20021;-69
2021/09/06 14:02:41;;;;;;;21.25;3.35;;;;;;;;;;5045606;28;20021;-69
2021/09/06 14:05:09;;;;;;;24.13;3.65;;;;;;;;;;5033449;28;20025;-69
2021/09/06 14:07:36;;;;;;;13.70;3.33;;;;;;;;;;5032506;28;20075;-69
2021/09/06 14:10:03;;;;;;;13.38;3.60;;;;;;;;;;5036888;28;20067;-69
2021/09/06 14:12:30;;;;;;;24.08;4.40;;;;;;;;;;5032408;28;20082;-69
2021/09/06 14:14:57;;;;;;;18.33;3.42;;;;;;;;;;5034835;28;20025;-69
2021/09/06 14:17:25;;;;;;;24.23;3.90;;;;;;;;;;5032404;28;20017;-69
2021/09/06 14:19:52;;;;;;;13.20;2.90;;;;;;;;;;5033219;28;20047;-69
2021/09/06 14:22:19;;;;;;;16.50;3.80;;;;;;;;;;5033576;28;20025;-69
2021/09/06 14:24:46;;;;;;;22.08;3.45;;;;;;;;;;5031796;28;20457;-69
2021/09/06 14:27:14;;;;;;;19.60;4.10;;;;;;;;;;5032255;28;20033;-70
2021/09/06 14:29:41;;;;;;;19.15;4.32;;;;;;;;;;5040356;28;20385;-69
2021/09/06 14:32:08;;;;;;;15.27;2.70;;;;;;;;;;5043647;28;20069;-69
2021/09/06 14:34:35;;;;;;;20.27;3.53;;;;;;;;;;5032305;28;20021;-69
2021/09/06 14:37:02;;;;;;;20.83;3.20;;;;;;;;;;5041074;28;20557;-69
2021/09/06 14:39:29;;;;;;;19.52;3.78;;;;;;;;;;5042248;28;20021;-69